createdAt,value
2023-03-27T00:01:38.561Z,6.44
2023-03-27T00:04:09.062Z,6.37
2023-03-27T00:06:37.707Z,6.33
2023-03-27T00:09:08.328Z,6.31
2023-03-27T00:11:36.960Z,6.28
2023-03-27T00:14:05.567Z,6.27
2023-03-27T00:16:33.907Z,6.26
2023-03-27T00:19:03.934Z,6.26
2023-03-27T00:21:32.499Z,6.27
2023-03-27T00:24:00.894Z,6.25
2023-03-27T00:26:30.554Z,6.25
2023-03-27T00:28:59.112Z,6.24
2023-03-27T00:31:27.451Z,6.25
2023-03-27T00:33:56.022Z,6.25
2023-03-27T00:36:26.363Z,6.26
2023-03-27T00:38:54.856Z,6.25
2023-03-27T00:41:23.489Z,6.24
2023-03-27T00:43:54.354Z,6.23
2023-03-27T00:46:35.846Z,6.21
2023-03-27T00:49:10.171Z,6.19
2023-03-27T00:51:42.100Z,6.16
2023-03-27T00:54:11.713Z,6.16
2023-03-27T00:56:40.290Z,6.16
2023-03-27T00:59:13.105Z,6.15
2023-03-27T01:01:43.691Z,6.15
2023-03-27T01:04:12.542Z,6.15
2023-03-27T01:06:44.615Z,6.15
2023-03-27T01:09:20.334Z,6.14
2023-03-27T01:12:02.093Z,6.13
2023-03-27T01:14:39.153Z,6.13
2023-03-27T01:17:27.281Z,6.12
2023-03-27T01:20:53.866Z,6.08
2023-03-27T01:24:15.598Z,6.02
2023-03-27T01:27:07.992Z,5.96
2023-03-27T01:29:57.665Z,5.89
2023-03-27T01:33:25.186Z,5.82
2023-03-27T01:36:19.268Z,5.78
2023-03-27T01:39:32.645Z,5.71
2023-03-27T01:42:09.685Z,5.72
2023-03-27T01:44:46.566Z,5.69
2023-03-27T01:47:31.365Z,5.66
2023-03-27T01:50:09.895Z,5.61
2023-03-27T01:52:41.899Z,5.56
2023-03-27T01:55:19.093Z,5.51
2023-03-27T01:57:53.068Z,5.44
2023-03-27T02:00:24.576Z,5.40
2023-03-27T02:03:11.143Z,5.37
2023-03-27T02:05:44.114Z,5.34
2023-03-27T02:08:18.364Z,5.30
2023-03-27T02:10:52.493Z,5.23
2023-03-27T02:13:26.981Z,5.19
2023-03-27T02:15:58.885Z,5.12
2023-03-27T02:18:33.294Z,5.03
2023-03-27T02:21:03.133Z,4.94
2023-03-27T02:23:33.717Z,4.85
2023-03-27T02:26:03.619Z,4.72
2023-03-27T02:28:55.289Z,4.60
2023-03-27T02:31:41.110Z,4.49
2023-03-27T02:34:39.279Z,4.38
2023-03-27T02:37:19.224Z,4.28
2023-03-27T02:40:15.649Z,4.20
2023-03-27T02:43:02.183Z,4.12
2023-03-27T02:45:39.300Z,4.08
2023-03-27T02:48:16.172Z,4.01
2023-03-27T02:50:51.249Z,3.94
2023-03-27T02:53:23.698Z,3.90
2023-03-27T02:55:57.218Z,3.87
2023-03-27T02:58:35.406Z,3.82
2023-03-27T03:01:19.165Z,3.80
2023-03-27T03:04:11.487Z,3.77
2023-03-27T03:07:06.561Z,3.74
2023-03-27T03:09:40.685Z,3.71
2023-03-27T03:12:10.768Z,3.69
2023-03-27T03:14:45.406Z,3.66
2023-03-27T03:17:15.063Z,3.64
2023-03-27T03:19:43.487Z,3.62
2023-03-27T03:22:11.984Z,3.61
2023-03-27T03:24:43.744Z,3.57
2023-03-27T03:27:15.597Z,3.54
2023-03-27T03:29:51.850Z,3.48
2023-03-27T03:32:22.894Z,3.46
2023-03-27T03:34:53.577Z,3.43
2023-03-27T03:37:22.266Z,3.37
2023-03-27T03:39:52.086Z,3.35
2023-03-27T03:42:22.377Z,3.31
2023-03-27T03:44:54.203Z,3.27
2023-03-27T03:47:24.411Z,3.24
2023-03-27T03:49:52.728Z,3.22
2023-03-27T03:52:21.291Z,3.19
2023-03-27T03:54:49.851Z,3.15
2023-03-27T03:57:18.395Z,3.13
2023-03-27T04:00:01.059Z,3.09
2023-03-27T04:02:45.500Z,3.06
2023-03-27T04:05:17.064Z,3.03
2023-03-27T04:07:45.962Z,3.01
2023-03-27T04:10:33.207Z,2.98
2023-03-27T04:13:05.180Z,2.97
2023-03-27T04:15:39.312Z,2.95
2023-03-27T04:18:10.837Z,2.92
2023-03-27T04:20:41.223Z,2.89
2023-03-27T04:23:13.845Z,2.87
2023-03-27T04:25:42.654Z,2.85
2023-03-27T04:28:16.678Z,2.84
2023-03-27T04:30:50.793Z,2.81
2023-03-27T04:33:31.530Z,2.79
2023-03-27T04:36:14.668Z,2.77
2023-03-27T04:38:50.361Z,2.74
2023-03-27T04:41:19.342Z,2.76
2023-03-27T04:43:47.862Z,2.73
2023-03-27T04:46:17.504Z,2.73
2023-03-27T04:48:46.310Z,2.72
2023-03-27T04:51:32.479Z,2.71
2023-03-27T04:54:04.772Z,2.69
2023-03-27T04:56:35.085Z,2.67
2023-03-27T04:59:06.361Z,2.65
2023-03-27T05:01:36.353Z,2.65
2023-03-27T05:04:26.276Z,2.63
2023-03-27T05:07:12.112Z,2.61
2023-03-27T05:09:40.807Z,2.59
2023-03-27T05:12:10.702Z,2.59
2023-03-27T05:14:49.485Z,2.57
2023-03-27T05:17:40.706Z,2.54
2023-03-27T05:20:14.442Z,2.50
2023-03-27T05:22:43.559Z,2.49
2023-03-27T05:25:24.527Z,2.46
2023-03-27T05:27:54.916Z,2.46
2023-03-27T05:30:27.366Z,2.45
2023-03-27T05:33:13.929Z,2.44
2023-03-27T05:35:43.205Z,2.44
2023-03-27T05:38:12.522Z,2.44
2023-03-27T05:40:47.512Z,2.43
2023-03-27T05:43:18.962Z,2.44
2023-03-27T05:45:47.276Z,2.45
2023-03-27T05:48:17.361Z,2.47
2023-03-27T05:50:46.862Z,2.50
2023-03-27T05:53:20.768Z,2.50
2023-03-27T05:56:17.194Z,2.53
2023-03-27T05:58:54.561Z,2.56
2023-03-27T06:01:24.072Z,2.59
2023-03-27T06:03:56.420Z,2.62
2023-03-27T06:06:41.840Z,2.68
2023-03-27T06:09:12.615Z,2.72
2023-03-27T06:11:44.841Z,2.78
2023-03-27T06:14:13.480Z,2.82
2023-03-27T06:17:06.398Z,2.86
2023-03-27T06:19:46.678Z,2.90
2023-03-27T06:22:15.302Z,2.92
2023-03-27T06:24:45.656Z,2.96
2023-03-27T06:27:20.529Z,3.00
2023-03-27T06:29:49.359Z,3.03
2023-03-27T06:32:17.897Z,3.05
2023-03-27T06:34:53.439Z,3.04
2023-03-27T06:37:55.729Z,3.08
2023-03-27T06:40:28.459Z,3.15
2023-03-27T06:43:03.816Z,3.28
2023-03-27T06:45:42.951Z,3.48
2023-03-27T06:48:21.392Z,3.70
2023-03-27T06:50:54.005Z,3.89
2023-03-27T06:53:27.900Z,4.06
2023-03-27T06:55:58.433Z,4.21
2023-03-27T06:58:28.505Z,4.34
2023-03-27T07:00:57.186Z,4.49
2023-03-27T07:03:37.500Z,4.61
2023-03-27T07:06:27.083Z,4.72
2023-03-27T07:09:01.786Z,4.82
2023-03-27T07:11:31.968Z,5.01
2023-03-27T07:14:05.178Z,5.18
2023-03-27T07:16:33.848Z,5.37
2023-03-27T07:19:02.750Z,5.54
2023-03-27T07:21:35.268Z,5.72
2023-03-27T07:24:03.684Z,5.88
2023-03-27T07:26:34.665Z,6.04
2023-03-27T07:29:10.517Z,6.21
2023-03-27T07:31:55.752Z,6.31
2023-03-27T07:34:49.097Z,6.47
2023-03-27T07:37:50.482Z,6.52
2023-03-27T07:40:51.115Z,6.73
2023-03-27T07:43:45.794Z,6.99
2023-03-27T07:46:14.507Z,7.12
2023-03-27T07:48:43.056Z,7.41
2023-03-27T07:51:17.719Z,7.64
2023-03-27T07:53:49.154Z,7.68
2023-03-27T07:56:23.375Z,7.91
2023-03-27T07:59:06.815Z,8.04
2023-03-27T08:01:35.706Z,8.18
2023-03-27T08:04:05.578Z,8.41
2023-03-27T08:06:36.114Z,8.63
2023-03-27T08:09:08.425Z,8.87
2023-03-27T08:11:37.505Z,9.08
2023-03-27T08:14:07.745Z,9.35
2023-03-27T08:16:37.203Z,9.62
2023-03-27T08:19:06.525Z,9.78
2023-03-27T08:21:39.905Z,9.82
2023-03-27T08:24:11.141Z,10.12
2023-03-27T08:26:59.641Z,10.27
2023-03-27T08:29:28.190Z,10.34
2023-03-27T08:31:56.768Z,10.48
2023-03-27T08:34:26.434Z,10.72
2023-03-27T08:36:54.944Z,10.97
2023-03-27T08:39:26.260Z,11.19
2023-03-27T08:42:03.982Z,11.54
2023-03-27T08:44:38.369Z,11.60
2023-03-27T08:47:20.614Z,11.35
2023-03-27T08:50:26.298Z,11.28
2023-03-27T08:53:15.590Z,10.90
2023-03-27T08:55:46.168Z,10.77
2023-03-27T08:58:34.520Z,10.82
2023-03-27T09:01:31.275Z,10.22
2023-03-27T09:04:17.402Z,9.64
2023-03-27T09:07:00.868Z,9.19
2023-03-27T09:09:46.700Z,8.87
2023-03-27T09:12:39.547Z,8.65
2023-03-27T09:15:13.846Z,8.47
2023-03-27T09:17:49.813Z,8.27
2023-03-27T09:20:24.346Z,8.01
2023-03-27T09:22:59.666Z,7.81
2023-03-27T09:26:01.056Z,7.70
2023-03-27T09:29:03.028Z,7.60
2023-03-27T09:31:40.664Z,8.06
2023-03-27T09:34:21.387Z,8.78
2023-03-27T09:36:49.970Z,9.14
2023-03-27T09:39:24.126Z,9.40
2023-03-27T09:42:16.535Z,9.43
2023-03-27T09:44:51.338Z,9.25
2023-03-27T09:47:25.356Z,9.16
2023-03-27T09:50:02.033Z,9.11
2023-03-27T09:52:48.379Z,9.53
2023-03-27T09:55:31.008Z,10.18
2023-03-27T09:58:15.220Z,10.55
2023-03-27T10:00:46.418Z,10.41
2023-03-27T10:03:18.549Z,10.16
2023-03-27T10:06:07.734Z,9.81
2023-03-27T10:08:50.361Z,9.79
2023-03-27T10:11:28.539Z,10.36
2023-03-27T10:14:11.834Z,10.86
2023-03-27T10:16:42.581Z,10.94
2023-03-27T10:19:25.218Z,10.75
2023-03-27T10:21:56.390Z,10.52
2023-03-27T10:24:34.429Z,10.61
2023-03-27T10:27:20.036Z,10.92
2023-03-27T10:30:30.836Z,11.04
2023-03-27T10:33:29.699Z,11.26
2023-03-27T10:36:12.415Z,11.33
2023-03-27T10:38:43.984Z,11.18
2023-03-27T10:41:37.576Z,10.89
2023-03-27T10:44:14.923Z,10.70
2023-03-27T10:46:50.558Z,10.63
2023-03-27T10:49:32.343Z,10.26
2023-03-27T10:52:16.868Z,9.35
2023-03-27T10:55:30.269Z,8.51
2023-03-27T10:58:05.472Z,8.02
2023-03-27T11:00:43.416Z,7.65
2023-03-27T11:03:28.071Z,7.37
2023-03-27T11:06:07.251Z,7.20
2023-03-27T11:08:53.002Z,7.17
2023-03-27T11:11:30.636Z,7.20
2023-03-27T11:14:05.679Z,7.29
2023-03-27T11:16:39.323Z,7.52
2023-03-27T11:19:39.163Z,7.90
2023-03-27T11:22:33.328Z,8.30
2023-03-27T11:25:14.183Z,8.89
2023-03-27T11:27:48.371Z,9.25
2023-03-27T11:30:39.146Z,9.56
2023-03-27T11:33:28.657Z,10.22
2023-03-27T11:36:17.556Z,11.06
2023-03-27T11:39:02.851Z,11.72
2023-03-27T11:41:32.444Z,12.11
2023-03-27T11:44:04.026Z,12.38
2023-03-27T11:47:36.760Z,12.63
2023-03-27T11:50:32.534Z,12.91
2023-03-27T11:53:25.105Z,13.23
2023-03-27T11:56:38.707Z,13.10
2023-03-27T11:59:54.598Z,13.34
2023-03-27T12:02:50.059Z,13.61
2023-03-27T12:05:34.179Z,13.82
2023-03-27T12:08:13.964Z,13.92
2023-03-27T12:10:50.439Z,14.11
2023-03-27T12:14:17.742Z,13.98
2023-03-27T12:17:22.510Z,13.43
2023-03-27T12:20:51.961Z,13.16
2023-03-27T12:23:40.070Z,12.56
2023-03-27T12:27:05.313Z,12.08
2023-03-27T12:30:07.750Z,11.93
2023-03-27T12:33:00.328Z,11.96
2023-03-27T12:35:32.780Z,12.04
2023-03-27T12:38:04.100Z,12.15
2023-03-27T12:40:41.845Z,12.29
2023-03-27T12:43:29.449Z,12.69
2023-03-27T12:46:31.643Z,13.20
2023-03-27T12:49:05.266Z,13.22
2023-03-27T12:51:44.427Z,13.14
2023-03-27T12:54:26.833Z,13.07
2023-03-27T12:57:06.605Z,13.12
2023-03-27T12:59:39.316Z,13.37
2023-03-27T13:02:56.352Z,13.59
2023-03-27T13:05:44.892Z,13.89
2023-03-27T13:08:49.670Z,13.39
2023-03-27T13:11:58.171Z,12.59
2023-03-27T13:15:18.543Z,11.96
2023-03-27T13:18:10.894Z,11.42
2023-03-27T13:20:49.317Z,11.02
2023-03-27T13:23:35.294Z,10.78
2023-03-27T13:26:23.702Z,10.45
2023-03-27T13:28:54.426Z,10.09
2023-03-27T13:32:02.005Z,9.99
2023-03-27T13:34:43.551Z,10.65
2023-03-27T13:37:54.333Z,10.77
2023-03-27T13:40:36.507Z,11.04
2023-03-27T13:43:23.900Z,11.67
2023-03-27T13:46:01.738Z,12.29
2023-03-27T13:49:22.170Z,12.96
2023-03-27T13:53:06.467Z,12.95
2023-03-27T13:56:44.973Z,12.29
2023-03-27T13:59:59.873Z,11.81
2023-03-27T14:03:34.946Z,11.72
2023-03-27T14:06:45.594Z,12.21
2023-03-27T14:09:27.426Z,12.71
2023-03-27T14:12:26.398Z,13.30
2023-03-27T14:15:33.533Z,13.87
2023-03-27T14:19:06.834Z,14.28
2023-03-27T14:21:53.416Z,14.47
2023-03-27T14:24:33.639Z,14.46
2023-03-27T14:27:18.466Z,14.43
2023-03-27T14:29:49.463Z,14.40
2023-03-27T14:32:19.360Z,14.39
2023-03-27T14:34:54.328Z,14.51
2023-03-27T14:37:44.852Z,14.57
2023-03-27T14:40:31.758Z,14.65
2023-03-27T14:43:07.928Z,14.77
2023-03-27T14:45:41.119Z,14.78
2023-03-27T14:48:22.477Z,14.71
2023-03-27T14:50:55.860Z,14.91
2023-03-27T14:53:31.266Z,15.19
2023-03-27T14:56:30.402Z,15.48
2023-03-27T14:59:02.002Z,15.61
2023-03-27T15:01:42.205Z,15.65
2023-03-27T15:04:14.049Z,15.68
2023-03-27T15:06:44.353Z,15.61
2023-03-27T15:09:24.306Z,15.59
2023-03-27T15:12:12.586Z,15.36
2023-03-27T15:14:42.354Z,15.26
2023-03-27T15:17:15.812Z,15.14
2023-03-27T15:19:48.996Z,15.13
2023-03-27T15:22:24.350Z,15.09
2023-03-27T15:24:57.526Z,15.02
2023-03-27T15:27:31.702Z,15.07
2023-03-27T15:30:04.566Z,15.04
2023-03-27T15:32:42.549Z,15.14
2023-03-27T15:35:17.990Z,15.18
2023-03-27T15:37:46.767Z,15.19
2023-03-27T15:40:42.775Z,15.10
2023-03-27T15:43:30.905Z,14.85
2023-03-27T15:46:15.262Z,14.52
2023-03-27T15:48:45.565Z,14.02
2023-03-27T15:51:28.607Z,13.52
2023-03-27T15:53:57.622Z,13.00
2023-03-27T15:56:29.550Z,12.52
2023-03-27T15:59:03.354Z,12.10
2023-03-27T16:01:36.155Z,11.77
2023-03-27T16:04:08.913Z,11.54
2023-03-27T16:06:40.850Z,11.52
2023-03-27T16:09:24.538Z,11.38
2023-03-27T16:11:55.127Z,11.19
2023-03-27T16:14:31.224Z,10.99
2023-03-27T16:17:19.630Z,10.75
2023-03-27T16:19:54.786Z,10.45
2023-03-27T16:22:29.128Z,10.19
2023-03-27T16:24:58.628Z,9.95
2023-03-27T16:27:32.699Z,9.74
2023-03-27T16:30:02.762Z,9.56
2023-03-27T16:32:31.721Z,9.43
2023-03-27T16:35:01.834Z,9.32
2023-03-27T16:37:30.522Z,9.25
2023-03-27T16:39:59.152Z,9.17
2023-03-27T16:42:27.371Z,9.10
2023-03-27T16:44:56.137Z,9.01
2023-03-27T16:47:25.962Z,8.93
2023-03-27T16:50:10.450Z,8.89
2023-03-27T16:52:39.534Z,9.07
2023-03-27T16:55:09.185Z,9.24
2023-03-27T16:57:37.841Z,9.40
2023-03-27T17:00:11.648Z,9.52
2023-03-27T17:02:41.433Z,9.52
2023-03-27T17:05:10.913Z,9.42
2023-03-27T17:07:41.650Z,9.34
2023-03-27T17:10:11.174Z,9.14
2023-03-27T17:12:39.485Z,8.98
2023-03-27T17:15:10.111Z,8.78
2023-03-27T17:17:39.975Z,8.47
2023-03-27T17:20:09.876Z,8.13
2023-03-27T17:22:38.425Z,7.86
2023-03-27T17:25:09.876Z,7.64
2023-03-27T17:27:38.449Z,7.48
2023-03-27T17:30:08.445Z,7.33
2023-03-27T17:32:37.103Z,7.20
2023-03-27T17:35:08.096Z,7.06
2023-03-27T17:37:36.913Z,6.96
2023-03-27T17:40:09.848Z,6.83
2023-03-27T17:42:38.976Z,6.71
2023-03-27T17:45:08.117Z,6.57
2023-03-27T17:47:36.423Z,6.46
2023-03-27T17:50:07.894Z,6.38
2023-03-27T17:52:36.123Z,6.31
2023-03-27T17:55:04.716Z,6.25
2023-03-27T17:57:33.322Z,6.22
2023-03-27T18:00:06.548Z,6.17
2023-03-27T18:02:41.265Z,6.12
2023-03-27T18:05:11.172Z,6.08
2023-03-27T18:07:39.718Z,6.05
2023-03-27T18:10:12.539Z,6.02
2023-03-27T18:12:41.042Z,6.00
2023-03-27T18:15:10.481Z,5.97
2023-03-27T18:17:39.127Z,5.92
2023-03-27T18:20:11.068Z,5.87
2023-03-27T18:22:40.238Z,5.84
2023-03-27T18:25:10.772Z,5.78
2023-03-27T18:27:40.874Z,5.73
2023-03-27T18:30:12.229Z,5.70
2023-03-27T18:32:42.744Z,5.67
2023-03-27T18:35:15.271Z,5.63
2023-03-27T18:37:45.021Z,5.59
2023-03-27T18:40:18.984Z,5.55
2023-03-27T18:42:47.588Z,5.51
2023-03-27T18:45:17.943Z,5.47
2023-03-27T18:47:46.479Z,5.43
2023-03-27T18:50:16.714Z,5.38
2023-03-27T18:52:45.373Z,5.33
2023-03-27T18:55:13.670Z,5.30
2023-03-27T18:57:44.722Z,5.26
2023-03-27T19:00:18.385Z,5.20
2023-03-27T19:02:47.869Z,5.16
2023-03-27T19:05:18.149Z,5.12
2023-03-27T19:07:46.924Z,5.09
2023-03-27T19:10:15.262Z,5.04
2023-03-27T19:12:47.289Z,4.99
2023-03-27T19:15:36.887Z,4.94
2023-03-27T19:18:30.063Z,4.86
2023-03-27T19:21:16.247Z,4.82
2023-03-27T19:23:49.418Z,4.78
2023-03-27T19:26:21.563Z,4.74
2023-03-27T19:28:50.127Z,4.71
2023-03-27T19:31:18.389Z,4.68
2023-03-27T19:33:46.969Z,4.64
2023-03-27T19:36:17.075Z,4.60
2023-03-27T19:38:45.851Z,4.56
2023-03-27T19:41:14.172Z,4.53
2023-03-27T19:43:42.717Z,4.49
2023-03-27T19:48:42.448Z,4.44
2023-03-27T19:51:19.679Z,4.39
2023-03-27T19:53:52.014Z,4.37
2023-03-27T19:56:23.163Z,4.33
2023-03-27T19:58:52.212Z,4.31
2023-03-27T20:01:21.355Z,4.27
2023-03-27T20:03:50.165Z,4.26
2023-03-27T20:06:20.482Z,4.25
2023-03-27T20:08:49.245Z,4.23
2023-03-27T20:11:18.126Z,4.23
2023-03-27T20:13:56.095Z,4.25
2023-03-27T20:16:27.229Z,4.22
2023-03-27T20:19:04.512Z,4.22
2023-03-27T20:21:37.506Z,4.21
2023-03-27T20:24:10.377Z,4.19
2023-03-27T20:26:47.982Z,4.18
2023-03-27T20:29:21.782Z,4.18
2023-03-27T20:31:50.407Z,4.18
2023-03-27T20:34:22.390Z,4.18
2023-03-27T20:36:54.794Z,4.20
2023-03-27T20:39:44.636Z,4.20
2023-03-27T20:42:15.868Z,4.20
2023-03-27T20:44:45.667Z,4.23
2023-03-27T20:47:18.971Z,4.23
2023-03-27T20:49:48.810Z,4.21
2023-03-27T20:52:22.551Z,4.21
2023-03-27T20:54:51.662Z,4.21
2023-03-27T20:57:22.503Z,4.21
2023-03-27T20:59:51.194Z,4.19
2023-03-27T21:02:23.465Z,4.17
2023-03-27T21:04:52.288Z,4.14
2023-03-27T21:07:21.814Z,4.10
2023-03-27T21:09:50.518Z,4.08
2023-03-27T21:12:19.034Z,4.06
2023-03-27T21:14:47.594Z,4.04
2023-03-27T21:17:15.995Z,4.00
2023-03-27T21:19:44.503Z,3.99
2023-03-27T21:22:12.988Z,3.94
2023-03-27T21:24:43.069Z,3.92
2023-03-27T21:27:11.572Z,3.89
2023-03-27T21:29:40.132Z,3.86
2023-03-27T21:32:09.173Z,3.83
2023-03-27T21:34:37.869Z,3.79
2023-03-27T21:37:06.128Z,3.77
2023-03-27T21:39:34.777Z,3.75
2023-03-27T21:42:04.650Z,3.72
2023-03-27T21:44:33.163Z,3.69
2023-03-27T21:47:01.649Z,3.66
2023-03-27T21:49:30.251Z,3.65
2023-03-27T21:51:58.738Z,3.62
2023-03-27T21:54:27.238Z,3.60
2023-03-27T21:56:55.789Z,3.57
2023-03-27T21:59:27.149Z,3.56
2023-03-27T22:01:56.034Z,3.53
2023-03-27T22:04:24.547Z,3.50
2023-03-27T22:06:53.442Z,3.48
2023-03-27T22:09:21.847Z,3.46
2023-03-27T22:11:50.549Z,3.43
2023-03-27T22:14:19.055Z,3.40
2023-03-27T22:16:48.760Z,3.38
2023-03-27T22:19:17.270Z,3.35
2023-03-27T22:21:45.989Z,3.30
2023-03-27T22:24:14.542Z,3.27
2023-03-27T22:26:43.224Z,3.23
2023-03-27T22:29:11.773Z,3.19
2023-03-27T22:31:40.382Z,3.17
2023-03-27T22:34:10.616Z,3.15
2023-03-27T22:36:39.296Z,3.13
2023-03-27T22:39:07.809Z,3.11
2023-03-27T22:41:36.468Z,3.08
2023-03-27T22:44:05.047Z,3.06
2023-03-27T22:46:34.485Z,3.03
2023-03-27T22:49:03.035Z,3.02
2023-03-27T22:51:33.358Z,3.00
2023-03-27T22:54:01.904Z,2.98
2023-03-27T22:56:30.286Z,2.96
2023-03-27T22:58:58.803Z,2.95
2023-03-27T23:01:27.403Z,2.94
2023-03-27T23:03:56.047Z,2.92
2023-03-27T23:06:25.190Z,2.90
2023-03-27T23:08:54.766Z,2.88
2023-03-27T23:11:23.262Z,2.84
2023-03-27T23:13:51.855Z,2.82
2023-03-27T23:16:20.251Z,2.79
2023-03-27T23:18:48.737Z,2.76
2023-03-27T23:21:17.865Z,2.71
2023-03-27T23:23:47.514Z,2.66
2023-03-27T23:26:18.040Z,2.62
2023-03-27T23:28:46.624Z,2.59
2023-03-27T23:31:17.365Z,2.57
2023-03-27T23:33:49.193Z,2.57
2023-03-27T23:36:21.487Z,2.56
2023-03-27T23:38:51.434Z,2.56
2023-03-27T23:41:21.634Z,2.57
2023-03-27T23:43:50.424Z,2.57
2023-03-27T23:46:19.109Z,2.57
2023-03-27T23:48:47.682Z,2.55
2023-03-27T23:51:17.385Z,2.54
2023-03-27T23:53:46.105Z,2.53
2023-03-27T23:56:14.730Z,2.52
2023-03-27T23:58:44.427Z,2.50
